createdAt,value
2023-05-14T00:01:13.169Z,21.37
2023-05-14T00:03:58.718Z,21.33
2023-05-14T00:06:43.909Z,21.31
2023-05-14T00:09:30.328Z,21.28
2023-05-14T00:12:15.572Z,21.25
2023-05-14T00:15:01.064Z,21.22
2023-05-14T00:17:46.502Z,21.21
2023-05-14T00:20:31.794Z,21.19
2023-05-14T00:23:16.655Z,21.18
2023-05-14T00:26:01.591Z,21.17
2023-05-14T00:28:46.509Z,21.19
2023-05-14T00:31:31.706Z,21.17
2023-05-14T00:34:16.488Z,21.17
2023-05-14T00:37:01.466Z,21.17
2023-05-14T00:39:46.332Z,21.19
2023-05-14T00:42:31.168Z,21.21
2023-05-14T00:45:16.213Z,21.24
2023-05-14T00:48:01.432Z,21.27
2023-05-14T00:50:47.745Z,21.33
2023-05-14T00:53:33.413Z,21.40
2023-05-14T00:56:19.308Z,21.48
2023-05-14T00:59:04.413Z,21.58
2023-05-14T01:01:49.421Z,21.71
2023-05-14T01:04:35.303Z,21.83
2023-05-14T01:07:33.651Z,21.95
2023-05-14T01:10:27.320Z,22.10
2023-05-14T01:13:22.774Z,22.28
2023-05-14T01:16:13.681Z,22.47
2023-05-14T01:19:00.796Z,22.65
2023-05-14T01:21:46.210Z,22.83
2023-05-14T01:24:31.637Z,23.01
2023-05-14T01:27:34.653Z,23.20
2023-05-14T01:30:22.297Z,23.34
2023-05-14T01:33:13.189Z,23.45
2023-05-14T01:35:58.564Z,23.51
2023-05-14T01:38:45.774Z,23.57
2023-05-14T01:41:31.962Z,23.65
2023-05-14T01:44:18.194Z,23.70
2023-05-14T01:47:03.566Z,23.77
2023-05-14T01:49:48.688Z,23.82
2023-05-14T01:52:33.654Z,23.87
2023-05-14T01:55:18.648Z,23.91
2023-05-14T01:58:03.865Z,23.97
2023-05-14T02:00:48.847Z,24.02
2023-05-14T02:03:33.689Z,24.05
2023-05-14T02:06:18.860Z,24.08
2023-05-14T02:09:05.345Z,24.11
2023-05-14T02:11:50.460Z,24.11
2023-05-14T02:14:35.918Z,24.13
2023-05-14T02:17:20.734Z,24.15
2023-05-14T02:20:06.381Z,24.17
2023-05-14T02:22:51.723Z,24.19
2023-05-14T02:25:37.543Z,24.19
2023-05-14T02:28:22.660Z,24.20
2023-05-14T02:31:07.423Z,24.20
2023-05-14T02:33:52.334Z,24.18
2023-05-14T02:36:37.219Z,24.16
2023-05-14T02:39:22.176Z,24.15
2023-05-14T02:42:07.502Z,24.12
2023-05-14T02:44:52.910Z,24.07
2023-05-14T02:47:38.449Z,24.00
2023-05-14T02:50:23.904Z,23.95
2023-05-14T02:53:09.091Z,23.89
2023-05-14T02:55:54.058Z,23.86
2023-05-14T02:58:39.130Z,23.81
2023-05-14T03:01:24.110Z,23.78
2023-05-14T03:04:09.405Z,23.73
2023-05-14T03:06:54.440Z,23.70
2023-05-14T03:09:39.192Z,23.67
2023-05-14T03:12:24.040Z,23.62
2023-05-14T03:15:09.517Z,23.58
2023-05-14T03:17:54.767Z,23.55
2023-05-14T03:20:40.214Z,23.53
2023-05-14T03:23:25.152Z,23.51
2023-05-14T03:26:10.029Z,23.47
2023-05-14T03:28:54.897Z,23.45
2023-05-14T03:31:39.972Z,23.42
2023-05-14T03:34:25.085Z,23.41
2023-05-14T03:37:10.917Z,23.38
2023-05-14T03:39:55.948Z,23.35
2023-05-14T03:42:40.808Z,23.32
2023-05-14T03:45:26.883Z,23.29
2023-05-14T03:48:12.021Z,23.26
2023-05-14T03:50:57.160Z,23.24
2023-05-14T03:53:42.030Z,23.20
2023-05-14T03:56:27.166Z,23.16
2023-05-14T03:59:12.165Z,23.13
2023-05-14T04:01:57.209Z,23.12
2023-05-14T04:04:42.327Z,23.09
2023-05-14T04:07:27.292Z,23.08
2023-05-14T04:10:13.694Z,23.05
2023-05-14T04:12:58.582Z,23.02
2023-05-14T04:15:43.760Z,22.98
2023-05-14T04:18:28.732Z,22.94
2023-05-14T04:21:13.620Z,22.91
2023-05-14T04:23:58.503Z,22.88
2023-05-14T04:26:43.440Z,22.86
2023-05-14T04:29:28.377Z,22.83
2023-05-14T04:32:13.193Z,22.81
2023-05-14T04:34:58.071Z,22.79
2023-05-14T04:37:42.889Z,22.75
2023-05-14T04:40:27.937Z,22.72
2023-05-14T04:43:12.910Z,22.70
2023-05-14T04:45:57.791Z,22.67
2023-05-14T04:48:42.877Z,22.65
2023-05-14T04:51:28.559Z,22.62
2023-05-14T04:54:13.551Z,22.60
2023-05-14T04:57:03.052Z,22.59
2023-05-14T04:59:47.957Z,22.58
2023-05-14T05:02:34.710Z,22.55
2023-05-14T05:05:20.136Z,22.51
2023-05-14T05:08:05.273Z,22.49
2023-05-14T05:10:50.431Z,22.46
2023-05-14T05:13:35.440Z,22.44
2023-05-14T05:16:20.618Z,22.45
2023-05-14T05:19:05.873Z,22.47
2023-05-14T05:21:51.217Z,22.50
2023-05-14T05:24:36.057Z,22.53
2023-05-14T05:27:22.015Z,22.51
2023-05-14T05:30:08.307Z,22.48
2023-05-14T05:32:53.375Z,22.46
2023-05-14T05:35:38.550Z,22.47
2023-05-14T05:38:23.206Z,22.49
2023-05-14T05:41:08.112Z,22.48
2023-05-14T05:43:52.982Z,22.48
2023-05-14T05:46:37.978Z,22.49
2023-05-14T05:49:23.024Z,22.48
2023-05-14T05:52:08.511Z,22.47
2023-05-14T05:54:53.682Z,22.47
2023-05-14T05:57:38.709Z,22.42
2023-05-14T06:00:24.690Z,22.38
2023-05-14T06:03:09.861Z,22.31
2023-05-14T06:05:55.271Z,22.24
2023-05-14T06:08:40.328Z,22.18
2023-05-14T06:11:25.579Z,22.12
2023-05-14T06:14:10.840Z,22.06
2023-05-14T06:16:55.842Z,22.02
2023-05-14T06:19:41.158Z,21.97
2023-05-14T06:22:26.117Z,21.91
2023-05-14T06:25:11.503Z,21.86
2023-05-14T06:27:56.510Z,21.81
2023-05-14T06:30:41.832Z,21.76
2023-05-14T06:33:30.840Z,21.72
2023-05-14T06:36:15.989Z,21.69
2023-05-14T06:39:01.011Z,21.64
2023-05-14T06:41:45.884Z,21.61
2023-05-14T06:44:31.034Z,21.59
2023-05-14T06:47:16.020Z,21.54
2023-05-14T06:50:01.909Z,21.50
2023-05-14T06:52:47.091Z,21.47
2023-05-14T06:55:32.093Z,21.46
2023-05-14T06:58:16.873Z,21.42
2023-05-14T07:01:01.873Z,21.41
2023-05-14T07:03:46.717Z,21.38
2023-05-14T07:06:32.570Z,21.36
2023-05-14T07:09:17.334Z,21.35
2023-05-14T07:12:02.170Z,21.32
2023-05-14T07:14:46.953Z,21.30
2023-05-14T07:17:31.875Z,21.28
2023-05-14T07:20:16.817Z,21.25
2023-05-14T07:23:01.747Z,21.23
2023-05-14T07:25:46.792Z,21.20
2023-05-14T07:28:31.969Z,21.18
2023-05-14T07:31:16.962Z,21.17
2023-05-14T07:34:01.944Z,21.14
2023-05-14T07:36:47.303Z,21.10
2023-05-14T07:39:32.170Z,21.08
2023-05-14T07:42:27.900Z,21.07
2023-05-14T07:45:19.904Z,21.05
2023-05-14T07:48:05.593Z,21.04
2023-05-14T07:50:51.582Z,21.03
2023-05-14T07:53:36.479Z,21.02
2023-05-14T07:56:22.674Z,21.02
2023-05-14T07:59:07.977Z,21.04
2023-05-14T08:01:52.872Z,21.07
2023-05-14T08:04:39.302Z,21.10
2023-05-14T08:07:24.319Z,21.14
2023-05-14T08:10:09.657Z,21.17
2023-05-14T08:12:54.895Z,21.20
2023-05-14T08:15:39.991Z,21.21
2023-05-14T08:18:24.948Z,21.25
2023-05-14T08:21:10.167Z,21.26
2023-05-14T08:23:55.313Z,21.26
2023-05-14T08:26:40.381Z,21.28
2023-05-14T08:29:25.935Z,21.31
2023-05-14T08:32:22.141Z,21.36
2023-05-14T08:35:08.720Z,21.42
2023-05-14T08:37:53.939Z,21.48
2023-05-14T08:40:39.362Z,21.55
2023-05-14T08:43:27.047Z,21.64
2023-05-14T08:46:13.962Z,21.76
2023-05-14T08:49:16.589Z,21.90
2023-05-14T08:52:02.112Z,22.04
2023-05-14T08:54:48.359Z,22.18
2023-05-14T08:57:34.109Z,22.33
2023-05-14T09:00:19.242Z,22.50
2023-05-14T09:03:07.093Z,22.69
2023-05-14T09:05:52.388Z,22.89
2023-05-14T09:08:38.767Z,23.08
2023-05-14T09:11:24.687Z,23.27
2023-05-14T09:14:10.172Z,23.45
2023-05-14T09:16:55.775Z,23.61
2023-05-14T09:19:41.012Z,23.76
2023-05-14T09:22:31.799Z,23.89
2023-05-14T09:25:17.050Z,24.00
2023-05-14T09:28:06.674Z,24.06
2023-05-14T09:30:52.232Z,24.11
2023-05-14T09:33:37.256Z,24.20
2023-05-14T09:36:23.222Z,24.27
2023-05-14T09:39:08.114Z,24.34
2023-05-14T09:41:53.505Z,24.41
2023-05-14T09:44:39.159Z,24.49
2023-05-14T09:47:24.328Z,24.56
2023-05-14T09:50:09.939Z,24.65
2023-05-14T09:52:56.115Z,24.73
2023-05-14T09:55:41.667Z,24.81
2023-05-14T09:58:27.004Z,24.87
2023-05-14T10:01:13.327Z,24.95
2023-05-14T10:03:59.101Z,25.03
2023-05-14T10:06:50.358Z,25.11
2023-05-14T10:09:38.352Z,25.18
2023-05-14T10:12:26.145Z,25.26
2023-05-14T10:15:20.346Z,25.34
2023-05-14T10:18:11.017Z,25.41
2023-05-14T10:21:06.259Z,25.51
2023-05-14T10:23:52.273Z,25.60
2023-05-14T10:26:39.435Z,25.69
2023-05-14T10:29:34.076Z,25.79
2023-05-14T10:32:20.926Z,25.88
2023-05-14T10:35:16.675Z,25.96
2023-05-14T10:38:02.098Z,26.05
2023-05-14T10:40:47.644Z,26.13
2023-05-14T10:43:37.855Z,26.23
2023-05-14T10:46:23.092Z,26.31
2023-05-14T10:49:08.105Z,26.40
2023-05-14T10:51:54.092Z,26.48
2023-05-14T10:54:39.303Z,26.54
2023-05-14T10:57:27.545Z,26.60
2023-05-14T11:00:13.995Z,26.67
2023-05-14T11:03:00.425Z,26.74
2023-05-14T11:05:46.222Z,26.80
2023-05-14T11:08:32.485Z,26.86
2023-05-14T11:11:19.174Z,26.93
2023-05-14T11:14:04.389Z,27.01
2023-05-14T11:16:50.305Z,27.06
2023-05-14T11:19:36.119Z,27.14
2023-05-14T11:22:21.212Z,27.20
2023-05-14T11:25:07.399Z,27.26
2023-05-14T11:27:55.941Z,27.32
2023-05-14T11:30:40.911Z,27.34
2023-05-14T11:33:27.777Z,27.38
2023-05-14T11:36:12.992Z,27.43
2023-05-14T11:38:58.207Z,27.48
2023-05-14T11:41:46.040Z,27.54
2023-05-14T11:44:32.190Z,27.60
2023-05-14T11:47:19.083Z,27.65
2023-05-14T11:50:04.426Z,27.70
2023-05-14T11:52:50.823Z,27.72
2023-05-14T11:55:36.448Z,27.72
2023-05-14T11:58:21.985Z,27.75
2023-05-14T12:01:06.965Z,27.77
2023-05-14T12:03:52.252Z,27.81
2023-05-14T12:06:39.051Z,27.82
2023-05-14T12:09:24.111Z,27.85
2023-05-14T12:12:11.436Z,27.84
2023-05-14T12:14:59.805Z,27.84
2023-05-14T12:17:52.269Z,27.86
2023-05-14T12:20:37.604Z,27.85
2023-05-14T12:23:30.914Z,27.85
2023-05-14T12:26:16.117Z,27.85
2023-05-14T12:29:02.416Z,27.84
2023-05-14T12:31:49.761Z,27.83
2023-05-14T12:34:37.327Z,27.82
2023-05-14T12:37:22.701Z,27.82
2023-05-14T12:40:09.797Z,27.79
2023-05-14T12:42:56.702Z,27.76
2023-05-14T12:45:41.821Z,27.73
2023-05-14T12:48:26.794Z,27.65
2023-05-14T12:51:12.479Z,27.59
2023-05-14T12:53:57.352Z,27.51
2023-05-14T12:56:42.661Z,27.44
2023-05-14T12:59:27.637Z,27.39
2023-05-14T13:02:13.607Z,27.35
2023-05-14T13:05:02.760Z,27.30
2023-05-14T13:07:47.765Z,27.25
2023-05-14T13:10:33.206Z,27.19
2023-05-14T13:13:18.370Z,27.13
2023-05-14T13:16:04.057Z,27.09
2023-05-14T13:18:48.858Z,27.03
2023-05-14T13:21:34.032Z,26.99
2023-05-14T13:24:18.874Z,26.94
2023-05-14T13:27:04.451Z,26.87
2023-05-14T13:29:49.459Z,26.82
2023-05-14T13:32:34.615Z,26.78
2023-05-14T13:35:19.722Z,26.74
2023-05-14T13:38:04.841Z,26.69
2023-05-14T13:40:49.810Z,26.64
2023-05-14T13:43:36.007Z,26.59
2023-05-14T13:46:21.337Z,26.54
2023-05-14T13:49:07.827Z,26.50
2023-05-14T13:51:52.885Z,26.46
2023-05-14T13:54:37.843Z,26.41
2023-05-14T13:57:23.090Z,26.37
2023-05-14T14:00:09.022Z,26.32
2023-05-14T14:02:54.024Z,26.26
2023-05-14T14:05:39.053Z,26.22
2023-05-14T14:08:24.777Z,26.19
2023-05-14T14:11:10.024Z,26.14
2023-05-14T14:13:55.275Z,26.09
2023-05-14T14:16:40.794Z,26.05
2023-05-14T14:19:25.798Z,26.01
2023-05-14T14:22:12.566Z,25.97
2023-05-14T14:24:57.717Z,25.92
2023-05-14T14:27:42.670Z,25.89
2023-05-14T14:30:27.982Z,25.86
2023-05-14T14:33:13.112Z,25.82
2023-05-14T14:35:57.977Z,25.78
2023-05-14T14:38:42.798Z,25.74
2023-05-14T14:41:27.806Z,25.72
2023-05-14T14:44:12.825Z,25.69
2023-05-14T14:46:57.997Z,25.66
2023-05-14T14:49:42.910Z,25.61
2023-05-14T14:52:28.424Z,25.57
2023-05-14T14:55:13.576Z,25.55
2023-05-14T14:57:58.442Z,25.51
2023-05-14T15:00:43.694Z,25.48
2023-05-14T15:03:28.938Z,25.46
2023-05-14T15:06:14.593Z,25.41
2023-05-14T15:08:59.782Z,25.38
2023-05-14T15:11:44.838Z,25.34
2023-05-14T15:14:29.738Z,25.32
2023-05-14T15:17:14.515Z,25.29
2023-05-14T15:19:59.414Z,25.26
2023-05-14T15:22:44.564Z,25.22
2023-05-14T15:25:29.949Z,25.19
2023-05-14T15:28:15.002Z,25.18
2023-05-14T15:31:00.007Z,25.16
2023-05-14T15:33:45.352Z,25.17
2023-05-14T15:36:30.952Z,25.18
2023-05-14T15:39:16.313Z,25.19
2023-05-14T15:42:01.414Z,25.20
2023-05-14T15:44:46.734Z,25.21
2023-05-14T15:47:32.200Z,25.21
2023-05-14T15:50:17.499Z,25.19
2023-05-14T15:53:02.707Z,25.14
2023-05-14T15:55:48.399Z,25.09
2023-05-14T15:58:33.728Z,25.03
2023-05-14T16:01:19.261Z,24.98
2023-05-14T16:04:04.886Z,24.95
2023-05-14T16:06:51.114Z,24.90
2023-05-14T16:09:36.952Z,24.87
2023-05-14T16:12:22.188Z,24.83
2023-05-14T16:15:08.312Z,24.82
2023-05-14T16:17:53.416Z,24.78
2023-05-14T16:20:38.560Z,24.76
2023-05-14T16:23:23.648Z,24.76
2023-05-14T16:26:08.953Z,24.74
2023-05-14T16:28:54.107Z,24.74
2023-05-14T16:31:39.476Z,24.75
2023-05-14T16:34:24.705Z,24.73
2023-05-14T16:37:11.350Z,24.72
2023-05-14T16:39:58.228Z,24.71
2023-05-14T16:42:43.576Z,24.70
2023-05-14T16:45:28.747Z,24.66
2023-05-14T16:48:14.076Z,24.66
2023-05-14T16:50:59.475Z,24.66
2023-05-14T16:53:44.399Z,24.65
2023-05-14T16:56:30.311Z,24.65
2023-05-14T16:59:15.967Z,24.63
2023-05-14T17:02:01.055Z,24.58
2023-05-14T17:04:46.462Z,24.55
2023-05-14T17:07:31.661Z,24.53
2023-05-14T17:10:16.858Z,24.49
2023-05-14T17:13:02.574Z,24.45
2023-05-14T17:15:47.977Z,24.39
2023-05-14T17:18:32.897Z,24.33
2023-05-14T17:21:18.287Z,24.28
2023-05-14T17:24:03.079Z,24.23
2023-05-14T17:26:47.978Z,24.18
2023-05-14T17:29:33.217Z,24.13
2023-05-14T17:32:18.553Z,24.09
2023-05-14T17:35:03.739Z,24.03
2023-05-14T17:37:48.952Z,23.98
2023-05-14T17:40:34.633Z,23.94
2023-05-14T17:43:19.530Z,23.90
2023-05-14T17:46:05.168Z,23.84
2023-05-14T17:48:50.280Z,23.80
2023-05-14T17:51:35.445Z,23.76
2023-05-14T17:54:20.423Z,23.72
2023-05-14T17:57:05.752Z,23.69
2023-05-14T17:59:50.908Z,23.67
2023-05-14T18:02:35.962Z,23.66
2023-05-14T18:05:21.612Z,23.64
2023-05-14T18:08:06.742Z,23.61
2023-05-14T18:10:51.767Z,23.58
2023-05-14T18:13:36.585Z,23.55
2023-05-14T18:16:21.415Z,23.53
2023-05-14T18:19:06.497Z,23.50
2023-05-14T18:21:51.917Z,23.47
2023-05-14T18:24:37.068Z,23.45
2023-05-14T18:27:21.955Z,23.42
2023-05-14T18:30:07.712Z,23.39
2023-05-14T18:32:52.804Z,23.37
2023-05-14T18:35:38.118Z,23.35
2023-05-14T18:38:23.438Z,23.32
2023-05-14T18:41:08.483Z,23.28
2023-05-14T18:43:53.642Z,23.25
2023-05-14T18:46:38.557Z,23.23
2023-05-14T18:49:23.351Z,23.20
2023-05-14T18:52:08.534Z,23.17
2023-05-14T18:54:54.766Z,23.15
2023-05-14T18:57:39.833Z,23.13
2023-05-14T19:00:24.737Z,23.10
2023-05-14T19:03:09.813Z,23.07
2023-05-14T19:05:55.270Z,23.03
2023-05-14T19:08:40.432Z,23.01
2023-05-14T19:11:26.036Z,23.00
2023-05-14T19:14:11.454Z,22.99
2023-05-14T19:16:56.849Z,22.99
2023-05-14T19:19:41.971Z,22.99
2023-05-14T19:22:26.998Z,22.98
2023-05-14T19:25:12.115Z,23.01
2023-05-14T19:27:57.739Z,23.06
2023-05-14T19:30:42.941Z,23.09
2023-05-14T19:33:28.742Z,23.12
2023-05-14T19:36:13.561Z,23.13
2023-05-14T19:38:58.696Z,23.14
2023-05-14T19:41:43.813Z,23.12
2023-05-14T19:44:28.967Z,23.11
2023-05-14T19:47:14.359Z,23.13
2023-05-14T19:49:59.456Z,23.14
2023-05-14T19:52:44.449Z,23.16
2023-05-14T19:55:29.681Z,23.16
2023-05-14T19:58:14.454Z,23.15
2023-05-14T20:01:00.746Z,23.14
2023-05-14T20:03:45.938Z,23.14
2023-05-14T20:06:32.076Z,23.14
2023-05-14T20:09:16.966Z,23.13
2023-05-14T20:12:01.784Z,23.14
2023-05-14T20:14:46.821Z,23.13
2023-05-14T20:17:31.723Z,23.12
2023-05-14T20:20:16.771Z,23.13
2023-05-14T20:23:02.122Z,23.10
2023-05-14T20:25:47.804Z,23.09
2023-05-14T20:28:32.994Z,23.06
2023-05-14T20:31:19.089Z,23.05
2023-05-14T20:34:04.332Z,23.03
2023-05-14T20:36:49.256Z,23.03
2023-05-14T20:39:34.239Z,23.01
2023-05-14T20:42:19.547Z,22.98
2023-05-14T20:45:05.117Z,22.95
2023-05-14T20:47:50.462Z,22.94
2023-05-14T20:50:36.458Z,22.92
2023-05-14T20:53:21.608Z,22.91
2023-05-14T20:56:07.015Z,22.88
2023-05-14T20:58:51.815Z,22.87
2023-05-14T21:01:36.859Z,22.86
2023-05-14T21:04:21.902Z,22.85
2023-05-14T21:07:07.155Z,22.84
2023-05-14T21:09:52.716Z,22.81
2023-05-14T21:12:38.118Z,22.80
2023-05-14T21:15:23.697Z,22.78
2023-05-14T21:18:09.230Z,22.76
2023-05-14T21:20:54.385Z,22.73
2023-05-14T21:23:39.317Z,22.71
2023-05-14T21:26:25.819Z,22.70
2023-05-14T21:29:11.302Z,22.68
2023-05-14T21:31:56.237Z,22.65
2023-05-14T21:34:41.266Z,22.61
2023-05-14T21:37:26.029Z,22.58
2023-05-14T21:40:12.497Z,22.58
2023-05-14T21:42:57.759Z,22.56
2023-05-14T21:45:43.833Z,22.55
2023-05-14T21:48:29.244Z,22.54
2023-05-14T21:51:14.538Z,22.53
2023-05-14T21:53:59.707Z,22.51
2023-05-14T21:56:44.667Z,22.51
2023-05-14T21:59:29.891Z,22.48
2023-05-14T22:02:14.880Z,22.46
2023-05-14T22:05:00.207Z,22.46
2023-05-14T22:07:45.689Z,22.44
2023-05-14T22:10:31.297Z,22.44
2023-05-14T22:13:16.592Z,22.42
2023-05-14T22:16:12.172Z,22.41
2023-05-14T22:18:58.797Z,22.40
2023-05-14T22:21:43.897Z,22.37
2023-05-14T22:24:28.712Z,22.34
2023-05-14T22:27:13.585Z,22.33
2023-05-14T22:29:59.116Z,22.29
2023-05-14T22:32:44.343Z,22.28
2023-05-14T22:35:29.445Z,22.27
2023-05-14T22:38:14.491Z,22.26
2023-05-14T22:40:59.545Z,22.25
2023-05-14T22:43:44.716Z,22.24
2023-05-14T22:46:29.992Z,22.22
2023-05-14T22:49:15.515Z,22.21
2023-05-14T22:52:00.438Z,22.19
2023-05-14T22:54:46.585Z,22.18
2023-05-14T22:57:32.910Z,22.16
2023-05-14T23:00:18.199Z,22.15
2023-05-14T23:03:03.576Z,22.15
2023-05-14T23:05:48.730Z,22.13
2023-05-14T23:08:33.578Z,22.12
2023-05-14T23:11:18.984Z,22.10
2023-05-14T23:14:03.879Z,22.08
2023-05-14T23:16:49.279Z,22.05
2023-05-14T23:19:34.532Z,22.03
2023-05-14T23:22:20.271Z,22.01
2023-05-14T23:25:06.979Z,21.98
2023-05-14T23:27:52.123Z,21.95
2023-05-14T23:30:37.247Z,21.92
2023-05-14T23:33:22.347Z,21.89
2023-05-14T23:36:07.953Z,21.86
2023-05-14T23:38:53.301Z,21.83
2023-05-14T23:41:38.398Z,21.82
2023-05-14T23:44:23.604Z,21.80
2023-05-14T23:47:08.790Z,21.80
2023-05-14T23:49:53.920Z,21.79
2023-05-14T23:52:38.870Z,21.78
2023-05-14T23:55:23.828Z,21.76
2023-05-14T23:58:09.261Z,21.74
